sensor_id;sensor_type;location;lat;lon;timestamp;pressure;altitude;pressure_sealevel;temperature;humidity
79250;BME280;68679;51.030;7.584;2023-07-29T00:00:33;98256.78;;;18.88;70.01
79250;BME280;68679;51.030;7.584;2023-07-29T00:02:58;98259.84;;;18.90;70.31
79250;BME280;68679;51.030;7.584;2023-07-29T00:05:23;98262.84;;;18.88;70.40
79250;BME280;68679;51.030;7.584;2023-07-29T00:07:48;98257.53;;;18.88;70.22
79250;BME280;68679;51.030;7.584;2023-07-29T00:10:14;98248.81;;;18.88;70.63
79250;BME280;68679;51.030;7.584;2023-07-29T00:12:39;98248.81;;;18.88;70.52
79250;BME280;68679;51.030;7.584;2023-07-29T00:15:04;98238.94;;;18.88;71.01
79250;BME280;68679;51.030;7.584;2023-07-29T00:17:30;98239.28;;;18.87;70.72
79250;BME280;68679;51.030;7.584;2023-07-29T00:19:55;98241.59;;;18.88;71.26
79250;BME280;68679;51.030;7.584;2023-07-29T00:22:20;98240.47;;;18.89;70.79
79250;BME280;68679;51.030;7.584;2023-07-29T00:24:51;98238.50;;;18.86;70.72
79250;BME280;68679;51.030;7.584;2023-07-29T00:27:17;98230.22;;;18.88;71.45
79250;BME280;68679;51.030;7.584;2023-07-29T00:29:42;98228.66;;;18.87;70.66
79250;BME280;68679;51.030;7.584;2023-07-29T00:32:07;98228.31;;;18.88;70.79
79250;BME280;68679;51.030;7.584;2023-07-29T00:34:33;98231.31;;;18.87;71.27
79250;BME280;68679;51.030;7.584;2023-07-29T00:36:58;98225.22;;;18.86;71.67
79250;BME280;68679;51.030;7.584;2023-07-29T00:39:23;98225.56;;;18.85;71.52
79250;BME280;68679;51.030;7.584;2023-07-29T00:41:48;98223.28;;;18.83;71.34
79250;BME280;68679;51.030;7.584;2023-07-29T00:44:14;98211.09;;;18.82;70.93
79250;BME280;68679;51.030;7.584;2023-07-29T00:46:40;98220.63;;;18.83;71.56
79250;BME280;68679;51.030;7.584;2023-07-29T00:49:06;98210.75;;;18.84;71.19
79250;BME280;68679;51.030;7.584;2023-07-29T00:51:31;98211.53;;;18.84;70.44
79250;BME280;68679;51.030;7.584;2023-07-29T00:53:56;98216.06;;;18.84;70.85
79250;BME280;68679;51.030;7.584;2023-07-29T00:56:22;98210.34;;;18.82;71.47
79250;BME280;68679;51.030;7.584;2023-07-29T00:58:47;98212.63;;;18.83;70.89
79250;BME280;68679;51.030;7.584;2023-07-29T01:01:12;98210.34;;;18.82;70.88
79250;BME280;68679;51.030;7.584;2023-07-29T01:03:38;98210.75;;;18.84;71.43
79250;BME280;68679;51.030;7.584;2023-07-29T01:06:23;98210.00;;;18.83;71.00
79250;BME280;68679;51.030;7.584;2023-07-29T01:09:14;98208.09;;;18.84;70.59
79250;BME280;68679;51.030;7.584;2023-07-29T01:12:01;98194.03;;;18.83;70.56
79250;BME280;68679;51.030;7.584;2023-07-29T01:14:39;98191.38;;;18.83;70.84
79250;BME280;68679;51.030;7.584;2023-07-29T01:17:09;98195.16;;;18.82;71.66
79250;BME280;68679;51.030;7.584;2023-07-29T01:22:19;98186.09;;;18.83;72.17
79250;BME280;68679;51.030;7.584;2023-07-29T01:24:46;98180.34;;;18.81;71.48
79250;BME280;68679;51.030;7.584;2023-07-29T01:27:11;98178.03;;;18.80;71.64
79250;BME280;68679;51.030;7.584;2023-07-29T01:29:37;98185.22;;;18.79;71.39
79250;BME280;68679;51.030;7.584;2023-07-29T01:32:10;98174.59;;;18.79;71.45
79250;BME280;68679;51.030;7.584;2023-07-29T01:34:43;98176.84;;;18.77;70.95
79250;BME280;68679;51.030;7.584;2023-07-29T01:37:14;98180.25;;;18.78;71.57
79250;BME280;68679;51.030;7.584;2023-07-29T01:39:40;98182.56;;;18.79;70.90
79250;BME280;68679;51.030;7.584;2023-07-29T01:42:07;98182.50;;;18.75;71.25
79250;BME280;68679;51.030;7.584;2023-07-29T01:44:32;98170.75;;;18.77;71.54
79250;BME280;68679;51.030;7.584;2023-07-29T01:46:59;98166.97;;;18.78;71.51
79250;BME280;68679;51.030;7.584;2023-07-29T01:49:24;98158.25;;;18.77;71.91
79250;BME280;68679;51.030;7.584;2023-07-29T01:51:50;98153.69;;;18.78;71.38
79250;BME280;68679;51.030;7.584;2023-07-29T01:54:15;98160.91;;;18.77;72.06
79250;BME280;68679;51.030;7.584;2023-07-29T01:56:40;98163.56;;;18.77;70.71
79250;BME280;68679;51.030;7.584;2023-07-29T01:59:06;98162.78;;;18.77;71.28
79250;BME280;68679;51.030;7.584;2023-07-29T02:01:31;98157.47;;;18.77;71.27
79250;BME280;68679;51.030;7.584;2023-07-29T02:03:56;98160.91;;;18.77;71.10
79250;BME280;68679;51.030;7.584;2023-07-29T02:06:21;98160.13;;;18.77;71.06
79250;BME280;68679;51.030;7.584;2023-07-29T02:08:47;98154.06;;;18.76;71.50
79250;BME280;68679;51.030;7.584;2023-07-29T02:11:12;98162.03;;;18.76;71.70
79250;BME280;68679;51.030;7.584;2023-07-29T02:13:37;98152.53;;;18.75;71.17
79250;BME280;68679;51.030;7.584;2023-07-29T02:16:03;98144.97;;;18.77;70.84
79250;BME280;68679;51.030;7.584;2023-07-29T02:18:28;98143.44;;;18.76;70.50
79250;BME280;68679;51.030;7.584;2023-07-29T02:20:53;98133.94;;;18.75;71.00
79250;BME280;68679;51.030;7.584;2023-07-29T02:23:19;98139.25;;;18.75;71.61
79250;BME280;68679;51.030;7.584;2023-07-29T02:25:44;98140.00;;;18.75;71.34
79250;BME280;68679;51.030;7.584;2023-07-29T02:28:09;98140.69;;;18.72;71.53
79250;BME280;68679;51.030;7.584;2023-07-29T02:30:36;98131.59;;;18.73;71.37
79250;BME280;68679;51.030;7.584;2023-07-29T02:33:01;98118.66;;;18.72;71.63
79250;BME280;68679;51.030;7.584;2023-07-29T02:35:27;98114.88;;;18.73;71.90
79250;BME280;68679;51.030;7.584;2023-07-29T02:37:52;98114.88;;;18.73;71.62
79250;BME280;68679;51.030;7.584;2023-07-29T02:40:18;98125.50;;;18.73;71.28
79250;BME280;68679;51.030;7.584;2023-07-29T02:42:43;98138.03;;;18.72;70.78
79250;BME280;68679;51.030;7.584;2023-07-29T02:45:08;98132.31;;;18.70;71.75
79250;BME280;68679;51.030;7.584;2023-07-29T02:47:36;98140.28;;;18.70;71.74
79250;BME280;68679;51.030;7.584;2023-07-29T02:50:02;98127.75;;;18.71;71.51
79250;BME280;68679;51.030;7.584;2023-07-29T02:52:27;98117.91;;;18.71;72.02
79250;BME280;68679;51.030;7.584;2023-07-29T02:54:53;98120.56;;;18.71;71.49
79250;BME280;68679;51.030;7.584;2023-07-29T02:57:18;98120.91;;;18.70;71.94
79250;BME280;68679;51.030;7.584;2023-07-29T02:59:43;98136.50;;;18.71;71.12
79250;BME280;68679;51.030;7.584;2023-07-29T03:02:08;98123.56;;;18.70;71.98
79250;BME280;68679;51.030;7.584;2023-07-29T03:04:34;98136.50;;;18.71;71.69
79250;BME280;68679;51.030;7.584;2023-07-29T03:06:59;98138.72;;;18.69;71.40
79250;BME280;68679;51.030;7.584;2023-07-29T03:09:25;98145.94;;;18.69;71.06
79250;BME280;68679;51.030;7.584;2023-07-29T03:11:50;98135.31;;;18.69;71.88
79250;BME280;68679;51.030;7.584;2023-07-29T03:14:17;98129.56;;;18.67;72.01
79250;BME280;68679;51.030;7.584;2023-07-29T03:16:43;98124.69;;;18.69;71.27
79250;BME280;68679;51.030;7.584;2023-07-29T03:19:08;98122.34;;;18.67;71.39
79250;BME280;68679;51.030;7.584;2023-07-29T03:21:33;98139.06;;;18.68;71.30
79250;BME280;68679;51.030;7.584;2023-07-29T03:23:58;98129.56;;;18.67;71.87
79250;BME280;68679;51.030;7.584;2023-07-29T03:26:24;98127.22;;;18.65;71.31
79250;BME280;68679;51.030;7.584;2023-07-29T03:28:50;98122.28;;;18.64;71.75
79250;BME280;68679;51.030;7.584;2023-07-29T03:31:15;98121.06;;;18.61;70.81
79250;BME280;68679;51.030;7.584;2023-07-29T03:33:40;98122.19;;;18.60;71.07
79250;BME280;68679;51.030;7.584;2023-07-29T03:36:06;98121.41;;;18.60;71.06
79250;BME280;68679;51.030;7.584;2023-07-29T03:38:31;98121.75;;;18.58;71.08
79250;BME280;68679;51.030;7.584;2023-07-29T03:40:58;98121.75;;;18.58;70.72
79250;BME280;68679;51.030;7.584;2023-07-29T03:43:23;98120.56;;;18.56;70.94
79250;BME280;68679;51.030;7.584;2023-07-29T03:45:48;98117.91;;;18.56;71.14
79250;BME280;68679;51.030;7.584;2023-07-29T03:48:14;98119.00;;;18.55;71.35
79250;BME280;68679;51.030;7.584;2023-07-29T03:50:39;98111.81;;;18.55;71.72
79250;BME280;68679;51.030;7.584;2023-07-29T03:53:04;98107.72;;;18.58;71.24
79250;BME280;68679;51.030;7.584;2023-07-29T03:55:31;98106.50;;;18.55;71.46
79250;BME280;68679;51.030;7.584;2023-07-29T03:57:57;98117.13;;;18.55;71.36
79250;BME280;68679;51.030;7.584;2023-07-29T04:00:22;98122.78;;;18.54;71.34
79250;BME280;68679;51.030;7.584;2023-07-29T04:02:48;98125.44;;;18.54;71.19
79250;BME280;68679;51.030;7.584;2023-07-29T04:05:13;98130.00;;;18.53;71.52
79250;BME280;68679;51.030;7.584;2023-07-29T04:07:38;98130.00;;;18.53;72.19
79250;BME280;68679;51.030;7.584;2023-07-29T04:10:05;98120.13;;;18.54;70.39
79250;BME280;68679;51.030;7.584;2023-07-29T04:12:30;98119.38;;;18.53;71.22
79250;BME280;68679;51.030;7.584;2023-07-29T04:14:56;98121.59;;;18.51;70.96
79250;BME280;68679;51.030;7.584;2023-07-29T04:17:21;98125.03;;;18.52;71.22
79250;BME280;68679;51.030;7.584;2023-07-29T04:19:47;98120.50;;;18.52;71.31
79250;BME280;68679;51.030;7.584;2023-07-29T04:22:12;98120.50;;;18.52;72.23
79250;BME280;68679;51.030;7.584;2023-07-29T04:24:37;98130.00;;;18.53;71.20
79250;BME280;68679;51.030;7.584;2023-07-29T04:27:03;98134.88;;;18.51;72.04
79250;BME280;68679;51.030;7.584;2023-07-29T04:29:31;98141.72;;;18.52;71.30
79250;BME280;68679;51.030;7.584;2023-07-29T04:31:56;98149.34;;;18.54;70.96
79250;BME280;68679;51.030;7.584;2023-07-29T04:34:21;98144.81;;;18.54;70.64
79250;BME280;68679;51.030;7.584;2023-07-29T04:36:47;98144.13;;;18.57;71.03
79250;BME280;68679;51.030;7.584;2023-07-29T04:39:12;98139.13;;;18.56;71.33
79250;BME280;68679;51.030;7.584;2023-07-29T04:41:38;98143.00;;;18.58;70.41
79250;BME280;68679;51.030;7.584;2023-07-29T04:44:03;98143.34;;;18.57;71.56
79250;BME280;68679;51.030;7.584;2023-07-29T04:46:28;98138.38;;;18.55;71.37
79250;BME280;68679;51.030;7.584;2023-07-29T04:48:54;98127.34;;;18.53;71.93
79250;BME280;68679;51.030;7.584;2023-07-29T04:51:19;98101.91;;;18.52;71.67
79250;BME280;68679;51.030;7.584;2023-07-29T04:53:44;98103.84;;;18.55;71.51
79250;BME280;68679;51.030;7.584;2023-07-29T04:56:10;98127.75;;;18.55;71.54
79250;BME280;68679;51.030;7.584;2023-07-29T04:58:38;98128.88;;;18.54;71.99
79250;BME280;68679;51.030;7.584;2023-07-29T05:01:03;98127.44;;;18.57;72.18
79250;BME280;68679;51.030;7.584;2023-07-29T05:03:29;98127.44;;;18.57;71.93
79250;BME280;68679;51.030;7.584;2023-07-29T05:05:54;98127.44;;;18.57;71.67
79250;BME280;68679;51.030;7.584;2023-07-29T05:08:21;98137.69;;;18.58;71.97
79250;BME280;68679;51.030;7.584;2023-07-29T05:10:50;98130.16;;;18.60;71.51
79250;BME280;68679;51.030;7.584;2023-07-29T05:13:16;98130.91;;;18.61;70.94
79250;BME280;68679;51.030;7.584;2023-07-29T05:15:41;98134.00;;;18.63;72.09
79250;BME280;68679;51.030;7.584;2023-07-29T05:18:07;98135.53;;;18.64;71.94
79250;BME280;68679;51.030;7.584;2023-07-29T05:20:32;98140.50;;;18.65;71.91
79250;BME280;68679;51.030;7.584;2023-07-29T05:22:57;98143.94;;;18.66;71.81
79250;BME280;68679;51.030;7.584;2023-07-29T05:25:23;98140.19;;;18.67;72.09
79250;BME280;68679;51.030;7.584;2023-07-29T05:27:48;98137.53;;;18.67;71.49
79250;BME280;68679;51.030;7.584;2023-07-29T05:30:13;98140.94;;;18.67;72.10
79250;BME280;68679;51.030;7.584;2023-07-29T05:32:38;98154.66;;;18.69;71.43
79250;BME280;68679;51.030;7.584;2023-07-29T05:35:04;98156.19;;;18.70;71.50
79250;BME280;68679;51.030;7.584;2023-07-29T05:37:30;98157.75;;;18.71;71.74
79250;BME280;68679;51.030;7.584;2023-07-29T05:39:55;98155.50;;;18.73;71.26
79250;BME280;68679;51.030;7.584;2023-07-29T05:42:20;98154.47;;;18.78;71.06
79250;BME280;68679;51.030;7.584;2023-07-29T05:44:46;98159.38;;;18.76;71.64
79250;BME280;68679;51.030;7.584;2023-07-29T05:47:11;98168.88;;;18.77;71.62
79250;BME280;68679;51.030;7.584;2023-07-29T05:49:36;98165.09;;;18.78;70.14
79250;BME280;68679;51.030;7.584;2023-07-29T05:52:01;98157.91;;;18.79;71.55
79250;BME280;68679;51.030;7.584;2023-07-29T05:54:27;98175.72;;;18.78;71.32
79250;BME280;68679;51.030;7.584;2023-07-29T05:56:52;98166.28;;;18.81;71.22
79250;BME280;68679;51.030;7.584;2023-07-29T05:59:17;98170.81;;;18.80;71.03
79250;BME280;68679;51.030;7.584;2023-07-29T06:01:42;98177.69;;;18.81;70.76
79250;BME280;68679;51.030;7.584;2023-07-29T06:04:08;98178.88;;;18.84;70.83
79250;BME280;68679;51.030;7.584;2023-07-29T06:06:33;98181.19;;;18.85;69.36
79250;BME280;68679;51.030;7.584;2023-07-29T06:08:58;98185.06;;;18.88;68.60
79250;BME280;68679;51.030;7.584;2023-07-29T06:11:24;98199.09;;;18.88;68.21
79250;BME280;68679;51.030;7.584;2023-07-29T06:13:49;98198.34;;;18.88;70.34
79250;BME280;68679;51.030;7.584;2023-07-29T06:16:15;98194.47;;;18.85;71.67
79250;BME280;68679;51.030;7.584;2023-07-29T06:18:43;98196.00;;;18.86;70.71
79250;BME280;68679;51.030;7.584;2023-07-29T06:21:09;98190.38;;;18.88;69.53
79250;BME280;68679;51.030;7.584;2023-07-29T06:23:37;98180.50;;;18.88;66.12
79250;BME280;68679;51.030;7.584;2023-07-29T06:26:02;98181.28;;;18.89;66.70
79250;BME280;68679;51.030;7.584;2023-07-29T06:28:28;98189.59;;;18.87;71.22
79250;BME280;68679;51.030;7.584;2023-07-29T06:30:53;98197.56;;;18.87;70.09
79250;BME280;68679;51.030;7.584;2023-07-29T06:33:19;98196.44;;;18.88;70.08
79250;BME280;68679;51.030;7.584;2023-07-29T06:35:44;98202.16;;;18.90;70.04
79250;BME280;68679;51.030;7.584;2023-07-29T06:38:09;98204.47;;;18.92;70.39
79250;BME280;68679;51.030;7.584;2023-07-29T06:40:35;98221.63;;;18.94;69.91
79250;BME280;68679;51.030;7.584;2023-07-29T06:43:00;98222.41;;;18.95;69.33
79250;BME280;68679;51.030;7.584;2023-07-29T06:45:26;98225.13;;;18.98;70.14
79250;BME280;68679;51.030;7.584;2023-07-29T06:47:51;98239.63;;;19.01;68.67
79250;BME280;68679;51.030;7.584;2023-07-29T06:50:16;98239.25;;;19.02;67.50
79250;BME280;68679;51.030;7.584;2023-07-29T06:52:42;98223.72;;;19.05;64.92
79250;BME280;68679;51.030;7.584;2023-07-29T06:55:07;98231.69;;;19.05;65.88
79250;BME280;68679;51.030;7.584;2023-07-29T06:57:33;98221.88;;;19.05;65.42
79250;BME280;68679;51.030;7.584;2023-07-29T06:59:58;98238.22;;;19.07;66.52
79250;BME280;68679;51.030;7.584;2023-07-29T07:02:24;98230.25;;;19.07;66.00
79250;BME280;68679;51.030;7.584;2023-07-29T07:04:49;98242.41;;;19.08;64.70
79250;BME280;68679;51.030;7.584;2023-07-29T07:07:15;98243.59;;;19.11;64.53
79250;BME280;68679;51.030;7.584;2023-07-29T07:09:40;98234.53;;;19.12;65.12
79250;BME280;68679;51.030;7.584;2023-07-29T07:12:06;98237.19;;;19.12;64.81
79250;BME280;68679;51.030;7.584;2023-07-29T07:14:31;98239.84;;;19.12;64.98
79250;BME280;68679;51.030;7.584;2023-07-29T07:16:56;98247.47;;;19.13;63.50
79250;BME280;68679;51.030;7.584;2023-07-29T07:19:22;98245.16;;;19.12;64.88
79250;BME280;68679;51.030;7.584;2023-07-29T07:21:47;98246.34;;;19.14;65.23
79250;BME280;68679;51.030;7.584;2023-07-29T07:24:15;98240.34;;;19.17;62.60
79250;BME280;68679;51.030;7.584;2023-07-29T07:26:41;98236.84;;;19.13;65.72
79250;BME280;68679;51.030;7.584;2023-07-29T07:29:06;98238.03;;;19.16;62.58
79250;BME280;68679;51.030;7.584;2023-07-29T07:31:33;98239.56;;;19.17;62.67
79250;BME280;68679;51.030;7.584;2023-07-29T07:33:59;98236.56;;;19.18;61.00
79250;BME280;68679;51.030;7.584;2023-07-29T07:36:24;98240.78;;;19.19;61.19
79250;BME280;68679;51.030;7.584;2023-07-29T07:38:50;98233.56;;;19.20;60.84
79250;BME280;68679;51.030;7.584;2023-07-29T07:41:15;98231.69;;;19.20;61.14
79250;BME280;68679;51.030;7.584;2023-07-29T07:43:40;98231.00;;;19.23;60.22
79250;BME280;68679;51.030;7.584;2023-07-29T07:46:06;98237.41;;;19.22;59.68
79250;BME280;68679;51.030;7.584;2023-07-29T07:48:31;98237.84;;;19.24;60.19
79250;BME280;68679;51.030;7.584;2023-07-29T07:50:58;98248.91;;;19.26;60.00
79250;BME280;68679;51.030;7.584;2023-07-29T07:53:23;98233.34;;;19.28;62.14
79250;BME280;68679;51.030;7.584;2023-07-29T07:55:50;98230.38;;;19.30;62.56
79250;BME280;68679;51.030;7.584;2023-07-29T07:58:16;98225.47;;;19.32;61.15
79250;BME280;68679;51.030;7.584;2023-07-29T08:00:41;98230.06;;;19.35;63.52
79250;BME280;68679;51.030;7.584;2023-07-29T08:03:06;98246.88;;;19.39;63.31
79250;BME280;68679;51.030;7.584;2023-07-29T08:05:32;98244.31;;;19.43;62.12
79250;BME280;68679;51.030;7.584;2023-07-29T08:07:57;98243.19;;;19.44;60.32
79250;BME280;68679;51.030;7.584;2023-07-29T08:10:22;98236.75;;;19.45;61.54
79250;BME280;68679;51.030;7.584;2023-07-29T08:12:48;98240.94;;;19.46;61.38
79250;BME280;68679;51.030;7.584;2023-07-29T08:15:13;98243.25;;;19.47;60.09
79250;BME280;68679;51.030;7.584;2023-07-29T08:17:38;98247.47;;;19.48;59.81
79250;BME280;68679;51.030;7.584;2023-07-29T08:20:04;98252.78;;;19.48;58.99
79250;BME280;68679;51.030;7.584;2023-07-29T08:22:29;98260.00;;;19.48;59.17
79250;BME280;68679;51.030;7.584;2023-07-29T08:24:54;98244.81;;;19.48;60.04
79250;BME280;68679;51.030;7.584;2023-07-29T08:27:20;98257.75;;;19.50;60.47
79250;BME280;68679;51.030;7.584;2023-07-29T08:29:45;98274.47;;;19.50;60.82
79250;BME280;68679;51.030;7.584;2023-07-29T08:32:10;98275.66;;;19.53;60.11
79250;BME280;68679;51.030;7.584;2023-07-29T08:34:36;98264.34;;;19.56;59.19
79250;BME280;68679;51.030;7.584;2023-07-29T08:37:01;98261.66;;;19.56;60.17
79250;BME280;68679;51.030;7.584;2023-07-29T08:39:27;98242.69;;;19.58;61.48
79250;BME280;68679;51.030;7.584;2023-07-29T08:42:03;98254.97;;;19.62;61.46
79250;BME280;68679;51.030;7.584;2023-07-29T08:44:45;98258.06;;;19.64;61.54
79250;BME280;68679;51.030;7.584;2023-07-29T08:47:11;98259.25;;;19.67;61.85
79250;BME280;68679;51.030;7.584;2023-07-29T08:49:38;98264.63;;;19.70;60.44
79250;BME280;68679;51.030;7.584;2023-07-29T08:52:05;98262.81;;;19.74;59.84
79250;BME280;68679;51.030;7.584;2023-07-29T08:54:31;98260.94;;;19.75;60.57
79250;BME280;68679;51.030;7.584;2023-07-29T08:56:57;98258.28;;;19.75;62.15
79250;BME280;68679;51.030;7.584;2023-07-29T08:59:23;98265.56;;;19.78;60.65
79250;BME280;68679;51.030;7.584;2023-07-29T09:01:49;98271.34;;;19.83;61.25
79250;BME280;68679;51.030;7.584;2023-07-29T09:04:15;98271.03;;;19.85;61.00
79250;BME280;68679;51.030;7.584;2023-07-29T09:06:42;98279.81;;;19.89;60.69
79250;BME280;68679;51.030;7.584;2023-07-29T09:09:08;98278.00;;;19.93;61.04
79250;BME280;68679;51.030;7.584;2023-07-29T09:11:34;98277.66;;;19.95;62.00
79250;BME280;68679;51.030;7.584;2023-07-29T09:14:00;98272.78;;;19.97;61.49
79250;BME280;68679;51.030;7.584;2023-07-29T09:16:25;98270.94;;;20.01;62.39
79250;BME280;68679;51.030;7.584;2023-07-29T09:18:51;98261.81;;;20.02;62.22
79250;BME280;68679;51.030;7.584;2023-07-29T09:21:18;98259.31;;;20.09;61.65
79250;BME280;68679;51.030;7.584;2023-07-29T09:23:50;98270.09;;;20.16;62.05
79250;BME280;68679;51.030;7.584;2023-07-29T09:26:25;98274.75;;;20.23;61.32
79250;BME280;68679;51.030;7.584;2023-07-29T09:28:55;98273.00;;;20.30;60.31
79250;BME280;68679;51.030;7.584;2023-07-29T09:31:23;98283.75;;;20.38;58.56
79250;BME280;68679;51.030;7.584;2023-07-29T09:33:49;98282.22;;;20.36;59.81
79250;BME280;68679;51.030;7.584;2023-07-29T09:36:15;98281.19;;;20.41;60.94
79250;BME280;68679;51.030;7.584;2023-07-29T09:38:40;98277.78;;;20.44;61.42
79250;BME280;68679;51.030;7.584;2023-07-29T09:41:11;98269.13;;;20.47;60.55
79250;BME280;68679;51.030;7.584;2023-07-29T09:43:37;98271.88;;;20.51;60.76
79250;BME280;68679;51.030;7.584;2023-07-29T09:46:04;98272.69;;;20.55;60.01
79250;BME280;68679;51.030;7.584;2023-07-29T09:48:36;98282.63;;;20.58;61.04
79250;BME280;68679;51.030;7.584;2023-07-29T09:51:15;98280.03;;;20.61;60.85
79250;BME280;68679;51.030;7.584;2023-07-29T09:53:43;98280.44;;;20.64;59.85
79250;BME280;68679;51.030;7.584;2023-07-29T09:56:08;98279.72;;;20.67;60.69
79250;BME280;68679;51.030;7.584;2023-07-29T09:58:33;98278.59;;;20.68;60.21
79250;BME280;68679;51.030;7.584;2023-07-29T10:01:00;98274.09;;;20.72;60.80
79250;BME280;68679;51.030;7.584;2023-07-29T10:03:25;98279.84;;;20.74;60.17
79250;BME280;68679;51.030;7.584;2023-07-29T10:05:51;98278.31;;;20.73;59.87
79250;BME280;68679;51.030;7.584;2023-07-29T10:08:17;98291.69;;;20.76;60.84
79250;BME280;68679;51.030;7.584;2023-07-29T10:10:44;98291.34;;;20.78;60.61
79250;BME280;68679;51.030;7.584;2023-07-29T10:13:10;98296.66;;;20.78;60.97
79250;BME280;68679;51.030;7.584;2023-07-29T10:15:35;98288.66;;;20.78;60.91
79250;BME280;68679;51.030;7.584;2023-07-29T10:18:01;98293.69;;;20.83;60.85
79250;BME280;68679;51.030;7.584;2023-07-29T10:20:28;98293.34;;;20.84;60.63
79250;BME280;68679;51.030;7.584;2023-07-29T10:22:56;98289.91;;;20.84;60.95
79250;BME280;68679;51.030;7.584;2023-07-29T10:25:24;98288.41;;;20.86;60.39
79250;BME280;68679;51.030;7.584;2023-07-29T10:27:56;98286.94;;;20.89;59.87
79250;BME280;68679;51.030;7.584;2023-07-29T10:30:24;98288.53;;;20.94;60.77
79250;BME280;68679;51.030;7.584;2023-07-29T10:32:51;98287.41;;;20.95;61.17
79250;BME280;68679;51.030;7.584;2023-07-29T10:35:18;98280.59;;;20.97;60.92
79250;BME280;68679;51.030;7.584;2023-07-29T10:37:44;98293.22;;;21.00;60.96
79250;BME280;68679;51.030;7.584;2023-07-29T10:40:11;98292.13;;;21.05;60.80
79250;BME280;68679;51.030;7.584;2023-07-29T10:42:37;98291.78;;;21.06;60.70
79250;BME280;68679;51.030;7.584;2023-07-29T10:45:20;98293.31;;;21.07;61.22
79250;BME280;68679;51.030;7.584;2023-07-29T10:47:47;98289.22;;;21.13;60.10
79250;BME280;68679;51.030;7.584;2023-07-29T10:50:20;98286.25;;;21.19;60.72
79250;BME280;68679;51.030;7.584;2023-07-29T10:52:49;98294.66;;;21.21;59.68
79250;BME280;68679;51.030;7.584;2023-07-29T10:55:24;98292.44;;;21.26;60.06
79250;BME280;68679;51.030;7.584;2023-07-29T10:57:50;98296.72;;;21.31;60.72
79250;BME280;68679;51.030;7.584;2023-07-29T11:00:15;98293.38;;;21.37;60.09
79250;BME280;68679;51.030;7.584;2023-07-29T11:02:41;98293.84;;;21.43;60.47
79250;BME280;68679;51.030;7.584;2023-07-29T11:05:17;98298.09;;;21.48;59.99
79250;BME280;68679;51.030;7.584;2023-07-29T11:07:47;98297.38;;;21.51;60.88
79250;BME280;68679;51.030;7.584;2023-07-29T11:10:13;98291.38;;;21.57;60.37
79250;BME280;68679;51.030;7.584;2023-07-29T11:12:41;98291.06;;;21.62;59.89
79250;BME280;68679;51.030;7.584;2023-07-29T11:17:39;98292.31;;;21.72;60.55
79250;BME280;68679;51.030;7.584;2023-07-29T11:20:05;98299.53;;;21.72;60.83
79250;BME280;68679;51.030;7.584;2023-07-29T11:22:32;98312.56;;;21.77;60.26
79250;BME280;68679;51.030;7.584;2023-07-29T11:24:57;98308.41;;;21.79;59.95
79250;BME280;68679;51.030;7.584;2023-07-29T11:27:23;98304.97;;;21.79;60.36
79250;BME280;68679;51.030;7.584;2023-07-29T11:29:48;98308.00;;;21.77;60.09
79250;BME280;68679;51.030;7.584;2023-07-29T11:32:15;98303.78;;;21.73;60.92
79250;BME280;68679;51.030;7.584;2023-07-29T11:34:41;98310.19;;;21.68;59.87
79250;BME280;68679;51.030;7.584;2023-07-29T11:37:10;98299.41;;;21.61;60.10
79250;BME280;68679;51.030;7.584;2023-07-29T11:39:42;98298.59;;;21.57;60.68
79250;BME280;68679;51.030;7.584;2023-07-29T11:42:11;98306.91;;;21.52;60.17
79250;BME280;68679;51.030;7.584;2023-07-29T11:44:37;98309.56;;;21.48;61.33
79250;BME280;68679;51.030;7.584;2023-07-29T11:47:09;98302.66;;;21.47;60.65
79250;BME280;68679;51.030;7.584;2023-07-29T11:49:35;98303.03;;;21.46;60.78
79250;BME280;68679;51.030;7.584;2023-07-29T11:52:01;98296.91;;;21.45;61.21
79250;BME280;68679;51.030;7.584;2023-07-29T11:54:27;98298.06;;;21.44;61.34
79250;BME280;68679;51.030;7.584;2023-07-29T11:56:52;98292.72;;;21.44;61.25
79250;BME280;68679;51.030;7.584;2023-07-29T11:59:18;98298.00;;;21.40;61.38
79250;BME280;68679;51.030;7.584;2023-07-29T12:01:45;98307.13;;;21.39;61.23
79250;BME280;68679;51.030;7.584;2023-07-29T12:04:10;98299.50;;;21.38;60.67
79250;BME280;68679;51.030;7.584;2023-07-29T12:06:37;98292.97;;;21.35;60.87
79250;BME280;68679;51.030;7.584;2023-07-29T12:09:03;98294.88;;;21.35;61.09
79250;BME280;68679;51.030;7.584;2023-07-29T12:11:28;98288.75;;;21.34;61.12
79250;BME280;68679;51.030;7.584;2023-07-29T12:13:54;98295.63;;;21.35;61.50
79250;BME280;68679;51.030;7.584;2023-07-29T12:16:19;98301.41;;;21.37;61.17
79250;BME280;68679;51.030;7.584;2023-07-29T12:18:44;98301.78;;;21.39;61.20
79250;BME280;68679;51.030;7.584;2023-07-29T12:21:10;98296.47;;;21.39;61.06
79250;BME280;68679;51.030;7.584;2023-07-29T12:23:35;98300.25;;;21.38;61.15
79250;BME280;68679;51.030;7.584;2023-07-29T12:26:01;98296.06;;;21.37;61.82
79250;BME280;68679;51.030;7.584;2023-07-29T12:28:26;98294.16;;;21.38;61.12
79250;BME280;68679;51.030;7.584;2023-07-29T12:30:55;98295.31;;;21.40;62.05
79250;BME280;68679;51.030;7.584;2023-07-29T12:33:36;98299.22;;;21.47;61.85
79250;BME280;68679;51.030;7.584;2023-07-29T12:36:04;98304.97;;;21.49;61.88
79250;BME280;68679;51.030;7.584;2023-07-29T12:38:30;98300.81;;;21.51;62.26
79250;BME280;68679;51.030;7.584;2023-07-29T12:40:56;98290.53;;;21.53;62.40
79250;BME280;68679;51.030;7.584;2023-07-29T12:43:21;98287.53;;;21.55;61.84
79250;BME280;68679;51.030;7.584;2023-07-29T12:45:49;98288.75;;;21.61;62.48
79250;BME280;68679;51.030;7.584;2023-07-29T12:48:14;98278.09;;;21.64;61.68
79250;BME280;68679;51.030;7.584;2023-07-29T12:50:40;98284.97;;;21.65;62.26
79250;BME280;68679;51.030;7.584;2023-07-29T12:53:07;98277.41;;;21.67;61.38
79250;BME280;68679;51.030;7.584;2023-07-29T12:55:32;98275.94;;;21.74;62.20
79250;BME280;68679;51.030;7.584;2023-07-29T12:57:58;98282.44;;;21.76;62.76
79250;BME280;68679;51.030;7.584;2023-07-29T13:00:24;98288.97;;;21.79;62.24